sensor_id;sensor_type;location;lat;lon;timestamp;temperature;humidity
45207;DHT22;30950;53.086;21.576;2023-03-01T00:01:06;-0.90;99.90
45207;DHT22;30950;53.086;21.576;2023-03-01T00:03:34;-0.90;99.90
45207;DHT22;30950;53.086;21.576;2023-03-01T00:06:01;0.00;99.90
45207;DHT22;30950;53.086;21.576;2023-03-01T00:08:29;-0.80;99.90
45207;DHT22;30950;53.086;21.576;2023-03-01T00:11:24;-0.70;99.90
45207;DHT22;30950;53.086;21.576;2023-03-01T00:13:55;-0.80;99.90
45207;DHT22;30950;53.086;21.576;2023-03-01T00:16:26;-0.80;99.90
45207;DHT22;30950;53.086;21.576;2023-03-01T00:18:54;-0.80;99.90
45207;DHT22;30950;53.086;21.576;2023-03-01T00:21:22;-0.70;99.90
45207;DHT22;30950;53.086;21.576;2023-03-01T00:23:50;-0.80;99.90
45207;DHT22;30950;53.086;21.576;2023-03-01T00:26:19;-0.70;99.90
45207;DHT22;30950;53.086;21.576;2023-03-01T00:28:47;-0.90;99.90
45207;DHT22;30950;53.086;21.576;2023-03-01T00:31:17;-0.80;99.90
45207;DHT22;30950;53.086;21.576;2023-03-01T00:33:45;-0.90;99.90
45207;DHT22;30950;53.086;21.576;2023-03-01T00:36:14;-0.90;99.90
45207;DHT22;30950;53.086;21.576;2023-03-01T00:38:44;-0.90;99.90
45207;DHT22;30950;53.086;21.576;2023-03-01T00:41:13;-0.90;99.90
45207;DHT22;30950;53.086;21.576;2023-03-01T00:43:41;-0.90;99.90
45207;DHT22;30950;53.086;21.576;2023-03-01T00:46:11;-0.90;99.90
45207;DHT22;30950;53.086;21.576;2023-03-01T00:48:39;-0.90;99.90
45207;DHT22;30950;53.086;21.576;2023-03-01T00:51:09;-0.70;99.90
45207;DHT22;30950;53.086;21.576;2023-03-01T00:53:37;-0.90;99.90
45207;DHT22;30950;53.086;21.576;2023-03-01T00:56:06;-0.90;99.90
45207;DHT22;30950;53.086;21.576;2023-03-01T00:58:34;-0.90;99.90
45207;DHT22;30950;53.086;21.576;2023-03-01T01:01:29;-0.90;99.90
45207;DHT22;30950;53.086;21.576;2023-03-01T01:04:00;-0.90;99.90
45207;DHT22;30950;53.086;21.576;2023-03-01T01:06:33;-0.90;99.90
45207;DHT22;30950;53.086;21.576;2023-03-01T01:09:03;-0.90;99.90
45207;DHT22;30950;53.086;21.576;2023-03-01T01:11:32;-1.00;99.90
45207;DHT22;30950;53.086;21.576;2023-03-01T01:14:00;-0.90;99.90
45207;DHT22;30950;53.086;21.576;2023-03-01T01:16:29;-0.90;99.90
45207;DHT22;30950;53.086;21.576;2023-03-01T01:18:57;-0.90;99.90
45207;DHT22;30950;53.086;21.576;2023-03-01T01:21:25;-0.80;99.90
45207;DHT22;30950;53.086;21.576;2023-03-01T01:23:53;0.10;99.90
45207;DHT22;30950;53.086;21.576;2023-03-01T01:26:26;-0.70;99.90
45207;DHT22;30950;53.086;21.576;2023-03-01T01:28:54;-0.40;99.90
45207;DHT22;30950;53.086;21.576;2023-03-01T01:31:23;-0.60;99.90
45207;DHT22;30950;53.086;21.576;2023-03-01T01:33:52;-0.50;99.90
45207;DHT22;30950;53.086;21.576;2023-03-01T01:36:20;-0.40;99.90
45207;DHT22;30950;53.086;21.576;2023-03-01T01:38:48;-0.40;99.90
45207;DHT22;30950;53.086;21.576;2023-03-01T01:41:16;-0.40;99.90
45207;DHT22;30950;53.086;21.576;2023-03-01T01:43:46;-0.30;99.90
45207;DHT22;30950;53.086;21.576;2023-03-01T01:48:53;-0.20;99.90
45207;DHT22;30950;53.086;21.576;2023-03-01T01:51:25;-0.20;99.90
45207;DHT22;30950;53.086;21.576;2023-03-01T01:53:58;-0.10;99.90
45207;DHT22;30950;53.086;21.576;2023-03-01T01:56:28;-0.10;99.90
45207;DHT22;30950;53.086;21.576;2023-03-01T01:58:57;0.50;99.90
45207;DHT22;30950;53.086;21.576;2023-03-01T02:01:25;0.00;99.90
45207;DHT22;30950;53.086;21.576;2023-03-01T02:03:52;0.00;99.90
45207;DHT22;30950;53.086;21.576;2023-03-01T02:06:29;0.00;99.90
45207;DHT22;30950;53.086;21.576;2023-03-01T02:09:03;0.10;99.90
45207;DHT22;30950;53.086;21.576;2023-03-01T02:11:32;0.10;99.90
45207;DHT22;30950;53.086;21.576;2023-03-01T02:13:59;0.10;99.90
45207;DHT22;30950;53.086;21.576;2023-03-01T02:16:27;0.40;99.90
45207;DHT22;30950;53.086;21.576;2023-03-01T02:18:55;0.80;99.90
45207;DHT22;30950;53.086;21.576;2023-03-01T02:24:00;0.30;99.90
45207;DHT22;30950;53.086;21.576;2023-03-01T02:26:42;0.30;99.90
45207;DHT22;30950;53.086;21.576;2023-03-01T02:29:12;0.30;99.90
45207;DHT22;30950;53.086;21.576;2023-03-01T02:31:39;0.40;99.90
45207;DHT22;30950;53.086;21.576;2023-03-01T02:34:17;0.40;99.90
45207;DHT22;30950;53.086;21.576;2023-03-01T02:37:00;0.40;99.90
45207;DHT22;30950;53.086;21.576;2023-03-01T02:39:40;0.40;99.90
45207;DHT22;30950;53.086;21.576;2023-03-01T02:42:14;0.40;99.90
45207;DHT22;30950;53.086;21.576;2023-03-01T02:44:43;0.40;99.90
45207;DHT22;30950;53.086;21.576;2023-03-01T02:47:11;1.30;99.90
45207;DHT22;30950;53.086;21.576;2023-03-01T02:49:38;0.40;99.90
45207;DHT22;30950;53.086;21.576;2023-03-01T02:54:56;0.50;99.90
45207;DHT22;30950;53.086;21.576;2023-03-01T02:57:27;0.50;99.90
45207;DHT22;30950;53.086;21.576;2023-03-01T02:59:57;0.50;99.90
45207;DHT22;30950;53.086;21.576;2023-03-01T03:02:29;0.50;99.90
45207;DHT22;30950;53.086;21.576;2023-03-01T03:05:20;0.50;99.90
45207;DHT22;30950;53.086;21.576;2023-03-01T03:07:51;0.50;99.90
45207;DHT22;30950;53.086;21.576;2023-03-01T03:10:25;0.50;99.90
45207;DHT22;30950;53.086;21.576;2023-03-01T03:12:56;1.10;99.90
45207;DHT22;30950;53.086;21.576;2023-03-01T03:15:25;0.50;99.90
45207;DHT22;30950;53.086;21.576;2023-03-01T03:17:53;0.50;99.90
45207;DHT22;30950;53.086;21.576;2023-03-01T03:20:23;0.60;99.90
45207;DHT22;30950;53.086;21.576;2023-03-01T03:22:52;0.60;99.90
45207;DHT22;30950;53.086;21.576;2023-03-01T03:25:21;0.60;99.90
45207;DHT22;30950;53.086;21.576;2023-03-01T03:27:50;0.60;99.90
45207;DHT22;30950;53.086;21.576;2023-03-01T03:30:29;0.80;99.90
45207;DHT22;30950;53.086;21.576;2023-03-01T03:32:58;0.70;99.90
45207;DHT22;30950;53.086;21.576;2023-03-01T03:35:30;0.70;99.90
45207;DHT22;30950;53.086;21.576;2023-03-01T03:38:01;0.70;99.90
45207;DHT22;30950;53.086;21.576;2023-03-01T03:41:03;0.70;99.90
45207;DHT22;30950;53.086;21.576;2023-03-01T03:43:31;1.00;99.90
45207;DHT22;30950;53.086;21.576;2023-03-01T03:45:59;0.70;99.90
45207;DHT22;30950;53.086;21.576;2023-03-01T03:48:27;0.70;99.90
45207;DHT22;30950;53.086;21.576;2023-03-01T03:50:55;0.60;99.90
45207;DHT22;30950;53.086;21.576;2023-03-01T03:53:25;0.70;99.90
45207;DHT22;30950;53.086;21.576;2023-03-01T03:55:53;1.00;99.90
45207;DHT22;30950;53.086;21.576;2023-03-01T03:58:23;0.70;99.90
45207;DHT22;30950;53.086;21.576;2023-03-01T04:00:55;0.70;99.90
45207;DHT22;30950;53.086;21.576;2023-03-01T04:03:24;0.70;99.90
45207;DHT22;30950;53.086;21.576;2023-03-01T04:05:53;0.70;99.90
45207;DHT22;30950;53.086;21.576;2023-03-01T04:08:21;0.70;99.90
45207;DHT22;30950;53.086;21.576;2023-03-01T04:10:51;0.70;99.90
45207;DHT22;30950;53.086;21.576;2023-03-01T04:13:21;0.70;99.90
45207;DHT22;30950;53.086;21.576;2023-03-01T04:15:50;0.80;99.90
45207;DHT22;30950;53.086;21.576;2023-03-01T04:18:20;0.70;99.90
45207;DHT22;30950;53.086;21.576;2023-03-01T04:20:48;0.80;99.90
45207;DHT22;30950;53.086;21.576;2023-03-01T04:23:20;1.40;99.90
45207;DHT22;30950;53.086;21.576;2023-03-01T04:25:57;1.10;99.90
45207;DHT22;30950;53.086;21.576;2023-03-01T04:28:29;0.70;99.90
45207;DHT22;30950;53.086;21.576;2023-03-01T04:30:58;0.70;99.90
45207;DHT22;30950;53.086;21.576;2023-03-01T04:33:25;0.90;99.90
45207;DHT22;30950;53.086;21.576;2023-03-01T04:35:53;0.70;99.90
45207;DHT22;30950;53.086;21.576;2023-03-01T04:38:20;0.80;99.90
45207;DHT22;30950;53.086;21.576;2023-03-01T04:40:48;0.80;99.90
45207;DHT22;30950;53.086;21.576;2023-03-01T04:43:15;0.80;99.90
45207;DHT22;30950;53.086;21.576;2023-03-01T04:45:44;0.80;99.90
45207;DHT22;30950;53.086;21.576;2023-03-01T04:48:12;0.90;99.90
45207;DHT22;30950;53.086;21.576;2023-03-01T04:50:39;0.90;99.90
45207;DHT22;30950;53.086;21.576;2023-03-01T04:53:06;1.10;99.90
45207;DHT22;30950;53.086;21.576;2023-03-01T04:55:34;0.90;99.90
45207;DHT22;30950;53.086;21.576;2023-03-01T04:58:01;0.90;99.90
45207;DHT22;30950;53.086;21.576;2023-03-01T05:00:28;0.90;99.90
45207;DHT22;30950;53.086;21.576;2023-03-01T05:02:59;1.00;99.90
45207;DHT22;30950;53.086;21.576;2023-03-01T05:05:32;0.90;99.90
45207;DHT22;30950;53.086;21.576;2023-03-01T05:08:02;0.90;99.90
45207;DHT22;30950;53.086;21.576;2023-03-01T05:10:32;0.90;99.90
45207;DHT22;30950;53.086;21.576;2023-03-01T05:12:59;0.90;99.90
45207;DHT22;30950;53.086;21.576;2023-03-01T05:15:28;1.00;99.90
45207;DHT22;30950;53.086;21.576;2023-03-01T05:17:58;1.00;99.90
45207;DHT22;30950;53.086;21.576;2023-03-01T05:20:27;1.00;99.90
45207;DHT22;30950;53.086;21.576;2023-03-01T05:22:58;1.00;99.90
45207;DHT22;30950;53.086;21.576;2023-03-01T05:25:26;1.00;99.90
45207;DHT22;30950;53.086;21.576;2023-03-01T05:27:54;1.00;99.90
45207;DHT22;30950;53.086;21.576;2023-03-01T05:30:22;1.00;99.90
45207;DHT22;30950;53.086;21.576;2023-03-01T05:32:50;1.00;99.90
45207;DHT22;30950;53.086;21.576;2023-03-01T05:35:23;1.00;99.90
45207;DHT22;30950;53.086;21.576;2023-03-01T05:37:51;1.00;99.90
45207;DHT22;30950;53.086;21.576;2023-03-01T05:40:21;1.00;99.90
45207;DHT22;30950;53.086;21.576;2023-03-01T05:42:53;1.00;99.90
45207;DHT22;30950;53.086;21.576;2023-03-01T05:45:23;1.00;99.90
45207;DHT22;30950;53.086;21.576;2023-03-01T05:47:51;1.10;99.90
45207;DHT22;30950;53.086;21.576;2023-03-01T05:50:26;1.10;99.90
45207;DHT22;30950;53.086;21.576;2023-03-01T05:53:01;1.10;99.90
45207;DHT22;30950;53.086;21.576;2023-03-01T05:55:29;1.00;99.90
45207;DHT22;30950;53.086;21.576;2023-03-01T05:57:59;1.10;99.90
45207;DHT22;30950;53.086;21.576;2023-03-01T06:00:28;1.10;99.90
45207;DHT22;30950;53.086;21.576;2023-03-01T06:02:57;1.10;99.90
45207;DHT22;30950;53.086;21.576;2023-03-01T06:05:26;1.10;99.90
45207;DHT22;30950;53.086;21.576;2023-03-01T06:07:53;1.10;99.90
45207;DHT22;30950;53.086;21.576;2023-03-01T06:10:22;1.20;99.90
45207;DHT22;30950;53.086;21.576;2023-03-01T06:12:49;1.20;99.90
45207;DHT22;30950;53.086;21.576;2023-03-01T06:15:16;1.20;99.90
45207;DHT22;30950;53.086;21.576;2023-03-01T06:17:45;1.20;99.90
45207;DHT22;30950;53.086;21.576;2023-03-01T06:20:18;1.20;99.90
45207;DHT22;30950;53.086;21.576;2023-03-01T06:22:45;1.20;99.90
45207;DHT22;30950;53.086;21.576;2023-03-01T06:25:16;1.20;99.90
45207;DHT22;30950;53.086;21.576;2023-03-01T06:27:44;1.20;99.90
45207;DHT22;30950;53.086;21.576;2023-03-01T06:30:15;1.30;99.90
45207;DHT22;30950;53.086;21.576;2023-03-01T06:32:43;1.30;99.90
45207;DHT22;30950;53.086;21.576;2023-03-01T06:35:12;1.30;99.90
45207;DHT22;30950;53.086;21.576;2023-03-01T06:37:40;1.30;99.90
45207;DHT22;30950;53.086;21.576;2023-03-01T06:40:09;1.30;99.90
45207;DHT22;30950;53.086;21.576;2023-03-01T06:42:40;1.40;99.90
45207;DHT22;30950;53.086;21.576;2023-03-01T06:45:08;1.40;99.90
45207;DHT22;30950;53.086;21.576;2023-03-01T06:47:36;1.40;99.90
45207;DHT22;30950;53.086;21.576;2023-03-01T06:50:04;1.50;99.90
45207;DHT22;30950;53.086;21.576;2023-03-01T06:52:31;1.50;99.90
45207;DHT22;30950;53.086;21.576;2023-03-01T06:54:59;1.60;99.90
45207;DHT22;30950;53.086;21.576;2023-03-01T06:57:27;1.60;99.90
45207;DHT22;30950;53.086;21.576;2023-03-01T06:59:54;1.60;99.90
45207;DHT22;30950;53.086;21.576;2023-03-01T07:02:22;1.80;99.90
45207;DHT22;30950;53.086;21.576;2023-03-01T07:04:50;1.70;99.90
45207;DHT22;30950;53.086;21.576;2023-03-01T07:07:18;1.80;99.90
45207;DHT22;30950;53.086;21.576;2023-03-01T07:09:46;1.80;99.90
45207;DHT22;30950;53.086;21.576;2023-03-01T07:12:15;1.90;99.90
45207;DHT22;30950;53.086;21.576;2023-03-01T07:14:44;1.90;99.90
45207;DHT22;30950;53.086;21.576;2023-03-01T07:17:11;1.90;99.90
45207;DHT22;30950;53.086;21.576;2023-03-01T07:19:38;1.90;99.90
45207;DHT22;30950;53.086;21.576;2023-03-01T07:22:06;1.90;99.90
45207;DHT22;30950;53.086;21.576;2023-03-01T07:24:35;1.80;99.90
45207;DHT22;30950;53.086;21.576;2023-03-01T07:27:02;1.80;99.90
45207;DHT22;30950;53.086;21.576;2023-03-01T07:29:30;1.80;99.90
45207;DHT22;30950;53.086;21.576;2023-03-01T07:31:57;1.80;99.90
45207;DHT22;30950;53.086;21.576;2023-03-01T07:34:25;1.80;99.90
45207;DHT22;30950;53.086;21.576;2023-03-01T07:36:52;1.80;99.90
45207;DHT22;30950;53.086;21.576;2023-03-01T07:39:20;1.80;99.90
45207;DHT22;30950;53.086;21.576;2023-03-01T07:41:50;1.80;99.90
45207;DHT22;30950;53.086;21.576;2023-03-01T07:44:21;1.80;99.90
45207;DHT22;30950;53.086;21.576;2023-03-01T07:46:48;1.80;99.90
45207;DHT22;30950;53.086;21.576;2023-03-01T07:49:16;1.80;99.90
45207;DHT22;30950;53.086;21.576;2023-03-01T07:51:43;1.90;99.90
45207;DHT22;30950;53.086;21.576;2023-03-01T07:54:11;2.00;99.90
45207;DHT22;30950;53.086;21.576;2023-03-01T07:56:38;2.00;99.90
45207;DHT22;30950;53.086;21.576;2023-03-01T07:59:06;2.00;99.90
45207;DHT22;30950;53.086;21.576;2023-03-01T08:01:33;2.00;99.90
45207;DHT22;30950;53.086;21.576;2023-03-01T08:04:01;2.10;99.90
45207;DHT22;30950;53.086;21.576;2023-03-01T08:06:28;2.10;99.90
45207;DHT22;30950;53.086;21.576;2023-03-01T08:08:56;2.10;99.90
45207;DHT22;30950;53.086;21.576;2023-03-01T08:11:23;2.10;99.90
45207;DHT22;30950;53.086;21.576;2023-03-01T08:13:51;2.20;99.90
45207;DHT22;30950;53.086;21.576;2023-03-01T08:16:20;2.20;99.90
45207;DHT22;30950;53.086;21.576;2023-03-01T08:18:47;2.30;99.90
45207;DHT22;30950;53.086;21.576;2023-03-01T08:21:16;2.30;99.90
45207;DHT22;30950;53.086;21.576;2023-03-01T08:23:45;2.30;99.90
45207;DHT22;30950;53.086;21.576;2023-03-01T08:26:15;2.30;99.90
45207;DHT22;30950;53.086;21.576;2023-03-01T08:28:44;2.30;99.90
45207;DHT22;30950;53.086;21.576;2023-03-01T08:31:30;2.30;99.90
45207;DHT22;30950;53.086;21.576;2023-03-01T08:34:00;2.30;99.90
45207;DHT22;30950;53.086;21.576;2023-03-01T08:36:30;2.30;99.90
45207;DHT22;30950;53.086;21.576;2023-03-01T08:38:58;2.40;99.90
45207;DHT22;30950;53.086;21.576;2023-03-01T08:41:26;2.40;99.90
45207;DHT22;30950;53.086;21.576;2023-03-01T08:43:54;2.40;99.90
45207;DHT22;30950;53.086;21.576;2023-03-01T08:46:36;2.50;99.90
45207;DHT22;30950;53.086;21.576;2023-03-01T08:49:08;2.50;99.90
45207;DHT22;30950;53.086;21.576;2023-03-01T08:51:35;2.50;99.90
45207;DHT22;30950;53.086;21.576;2023-03-01T08:54:10;2.60;99.90
45207;DHT22;30950;53.086;21.576;2023-03-01T08:56:38;2.60;99.90
45207;DHT22;30950;53.086;21.576;2023-03-01T08:59:06;2.70;99.90
45207;DHT22;30950;53.086;21.576;2023-03-01T09:01:34;2.70;99.90
45207;DHT22;30950;53.086;21.576;2023-03-01T09:04:01;2.70;99.90
45207;DHT22;30950;53.086;21.576;2023-03-01T09:06:33;2.80;99.90
45207;DHT22;30950;53.086;21.576;2023-03-01T09:09:02;2.80;99.90
45207;DHT22;30950;53.086;21.576;2023-03-01T09:11:29;2.80;99.90
45207;DHT22;30950;53.086;21.576;2023-03-01T09:13:57;2.90;99.90
45207;DHT22;30950;53.086;21.576;2023-03-01T09:16:24;2.90;99.90
45207;DHT22;30950;53.086;21.576;2023-03-01T09:18:53;2.90;99.90
45207;DHT22;30950;53.086;21.576;2023-03-01T09:21:22;2.90;99.90
45207;DHT22;30950;53.086;21.576;2023-03-01T09:24:08;2.90;99.90
45207;DHT22;30950;53.086;21.576;2023-03-01T09:26:38;2.90;99.90
45207;DHT22;30950;53.086;21.576;2023-03-01T09:29:06;2.90;99.90
45207;DHT22;30950;53.086;21.576;2023-03-01T09:31:33;3.00;99.90
45207;DHT22;30950;53.086;21.576;2023-03-01T09:34:00;3.10;99.90
45207;DHT22;30950;53.086;21.576;2023-03-01T09:36:28;3.10;99.90
45207;DHT22;30950;53.086;21.576;2023-03-01T09:38:57;3.10;99.90
45207;DHT22;30950;53.086;21.576;2023-03-01T09:41:44;3.10;99.90
45207;DHT22;30950;53.086;21.576;2023-03-01T09:46:52;3.20;99.90
45207;DHT22;30950;53.086;21.576;2023-03-01T09:49:28;3.30;99.90
45207;DHT22;30950;53.086;21.576;2023-03-01T09:52:03;3.30;99.90
45207;DHT22;30950;53.086;21.576;2023-03-01T09:54:32;3.40;99.90
45207;DHT22;30950;53.086;21.576;2023-03-01T09:57:18;3.40;99.90
45207;DHT22;30950;53.086;21.576;2023-03-01T10:03:01;3.50;99.90
45207;DHT22;30950;53.086;21.576;2023-03-01T10:11:25;3.50;99.90
45207;DHT22;30950;53.086;21.576;2023-03-01T10:16:55;3.50;99.90
45207;DHT22;30950;53.086;21.576;2023-03-01T10:19:41;3.40;99.90
45207;DHT22;30950;53.086;21.576;2023-03-01T10:22:15;3.50;99.90
45207;DHT22;30950;53.086;21.576;2023-03-01T10:24:43;3.40;99.90
45207;DHT22;30950;53.086;21.576;2023-03-01T10:27:29;3.40;99.90
45207;DHT22;30950;53.086;21.576;2023-03-01T10:30:29;3.50;99.90
45207;DHT22;30950;53.086;21.576;2023-03-01T10:32:59;3.50;99.90
45207;DHT22;30950;53.086;21.576;2023-03-01T10:35:33;3.50;99.90
45207;DHT22;30950;53.086;21.576;2023-03-01T10:38:09;3.50;99.90
45207;DHT22;30950;53.086;21.576;2023-03-01T10:43:18;3.70;99.90
45207;DHT22;30950;53.086;21.576;2023-03-01T10:45:46;3.70;99.90
45207;DHT22;30950;53.086;21.576;2023-03-01T10:48:18;3.70;99.90
45207;DHT22;30950;53.086;21.576;2023-03-01T10:50:51;3.80;99.90
45207;DHT22;30950;53.086;21.576;2023-03-01T10:53:37;3.90;99.90
45207;DHT22;30950;53.086;21.576;2023-03-01T10:56:12;3.80;99.90
45207;DHT22;30950;53.086;21.576;2023-03-01T10:59:03;3.80;99.90
45207;DHT22;30950;53.086;21.576;2023-03-01T11:01:33;3.90;99.90
45207;DHT22;30950;53.086;21.576;2023-03-01T11:06:36;3.80;99.90
45207;DHT22;30950;53.086;21.576;2023-03-01T11:09:22;3.80;99.90
45207;DHT22;30950;53.086;21.576;2023-03-01T11:11:55;3.90;99.90
45207;DHT22;30950;53.086;21.576;2023-03-01T11:14:25;3.90;99.90
45207;DHT22;30950;53.086;21.576;2023-03-01T11:17:16;3.80;99.90
45207;DHT22;30950;53.086;21.576;2023-03-01T11:20:01;3.90;99.90
45207;DHT22;30950;53.086;21.576;2023-03-01T11:22:29;3.90;99.90
45207;DHT22;30950;53.086;21.576;2023-03-01T11:24:59;3.90;99.90
45207;DHT22;30950;53.086;21.576;2023-03-01T11:27:44;3.90;99.90
45207;DHT22;30950;53.086;21.576;2023-03-01T11:35:35;4.10;99.90
45207;DHT22;30950;53.086;21.576;2023-03-01T11:38:22;4.10;99.90
45207;DHT22;30950;53.086;21.576;2023-03-01T11:41:06;4.10;99.90
45207;DHT22;30950;53.086;21.576;2023-03-01T11:43:56;4.20;99.90
45207;DHT22;30950;53.086;21.576;2023-03-01T11:54:26;4.10;99.90
45207;DHT22;30950;53.086;21.576;2023-03-01T11:57:03;4.10;99.90
45207;DHT22;30950;53.086;21.576;2023-03-01T12:05:24;4.00;99.90
45207;DHT22;30950;53.086;21.576;2023-03-01T12:10:38;4.00;99.90
45207;DHT22;30950;53.086;21.576;2023-03-01T12:21:51;4.00;99.90
45207;DHT22;30950;53.086;21.576;2023-03-01T12:24:47;4.10;99.90
45207;DHT22;30950;53.086;21.576;2023-03-01T12:36:31;4.20;99.90
45207;DHT22;30950;53.086;21.576;2023-03-01T12:50:50;4.00;99.90
45207;DHT22;30950;53.086;21.576;2023-03-01T12:53:30;4.00;99.90
45207;DHT22;30950;53.086;21.576;2023-03-01T12:56:02;4.00;99.90
45207;DHT22;30950;53.086;21.576;2023-03-01T13:04:07;4.00;99.90
45207;DHT22;30950;53.086;21.576;2023-03-01T13:12:04;4.10;99.90
45207;DHT22;30950;53.086;21.576;2023-03-01T13:14:53;4.10;99.90
45207;DHT22;30950;53.086;21.576;2023-03-01T13:17:32;4.10;99.90
45207;DHT22;30950;53.086;21.576;2023-03-01T13:20:00;4.20;99.90
45207;DHT22;30950;53.086;21.576;2023-03-01T13:22:30;4.20;99.90
45207;DHT22;30950;53.086;21.576;2023-03-01T13:25:13;4.20;99.90
45207;DHT22;30950;53.086;21.576;2023-03-01T13:27:41;4.30;99.90
45207;DHT22;30950;53.086;21.576;2023-03-01T13:35:50;4.30;99.90
45207;DHT22;30950;53.086;21.576;2023-03-01T13:41:04;4.40;99.90
45207;DHT22;30950;53.086;21.576;2023-03-01T13:43:41;4.40;99.90
45207;DHT22;30950;53.086;21.576;2023-03-01T13:46:19;4.30;99.90
45207;DHT22;30950;53.086;21.576;2023-03-01T13:48:52;4.30;99.90
45207;DHT22;30950;53.086;21.576;2023-03-01T13:51:24;4.40;99.90
45207;DHT22;30950;53.086;21.576;2023-03-01T13:53:53;4.50;99.90
45207;DHT22;30950;53.086;21.576;2023-03-01T13:56:25;4.70;99.90
45207;DHT22;30950;53.086;21.576;2023-03-01T13:58:58;4.90;99.90
45207;DHT22;30950;53.086;21.576;2023-03-01T14:01:34;5.10;99.90
45207;DHT22;30950;53.086;21.576;2023-03-01T14:04:17;5.30;99.90
45207;DHT22;30950;53.086;21.576;2023-03-01T14:06:45;5.50;99.90
45207;DHT22;30950;53.086;21.576;2023-03-01T14:09:22;5.60;99.90
45207;DHT22;30950;53.086;21.576;2023-03-01T14:18:04;5.70;99.90
45207;DHT22;30950;53.086;21.576;2023-03-01T14:20:45;5.70;99.90
45207;DHT22;30950;53.086;21.576;2023-03-01T14:23:20;5.70;99.90
45207;DHT22;30950;53.086;21.576;2023-03-01T14:25:50;5.80;99.90
45207;DHT22;30950;53.086;21.576;2023-03-01T14:28:27;5.90;99.90
45207;DHT22;30950;53.086;21.576;2023-03-01T14:30:57;6.00;99.90
45207;DHT22;30950;53.086;21.576;2023-03-01T14:33:32;6.00;99.90
45207;DHT22;30950;53.086;21.576;2023-03-01T14:36:05;6.00;99.90
45207;DHT22;30950;53.086;21.576;2023-03-01T14:38:43;6.10;99.90
45207;DHT22;30950;53.086;21.576;2023-03-01T14:43:41;6.00;99.90
45207;DHT22;30950;53.086;21.576;2023-03-01T14:49:05;5.90;99.90
45207;DHT22;30950;53.086;21.576;2023-03-01T14:51:37;5.80;99.90
45207;DHT22;30950;53.086;21.576;2023-03-01T14:54:25;5.80;99.90
45207;DHT22;30950;53.086;21.576;2023-03-01T14:56:58;5.70;99.90
45207;DHT22;30950;53.086;21.576;2023-03-01T14:59:26;7.50;99.90
45207;DHT22;30950;53.086;21.576;2023-03-01T15:01:56;5.60;99.90
45207;DHT22;30950;53.086;21.576;2023-03-01T15:04:24;5.60;99.90
45207;DHT22;30950;53.086;21.576;2023-03-01T15:06:54;5.50;99.90
45207;DHT22;30950;53.086;21.576;2023-03-01T15:09:23;5.50;99.90
45207;DHT22;30950;53.086;21.576;2023-03-01T15:11:50;5.50;99.90
45207;DHT22;30950;53.086;21.576;2023-03-01T15:14:49;5.40;99.90
45207;DHT22;30950;53.086;21.576;2023-03-01T15:17:35;5.40;99.90
45207;DHT22;30950;53.086;21.576;2023-03-01T15:20:05;5.20;99.90
45207;DHT22;30950;53.086;21.576;2023-03-01T15:22:35;5.20;99.90
45207;DHT22;30950;53.086;21.576;2023-03-01T15:25:02;5.10;99.90
45207;DHT22;30950;53.086;21.576;2023-03-01T15:27:30;5.00;99.90
45207;DHT22;30950;53.086;21.576;2023-03-01T15:29:59;5.00;99.90
45207;DHT22;30950;53.086;21.576;2023-03-01T15:32:35;4.90;99.90
45207;DHT22;30950;53.086;21.576;2023-03-01T15:35:43;4.90;99.90
45207;DHT22;30950;53.086;21.576;2023-03-01T15:41:04;4.70;99.90
45207;DHT22;30950;53.086;21.576;2023-03-01T15:46:05;4.50;99.90
45207;DHT22;30950;53.086;21.576;2023-03-01T15:48:38;4.50;99.90
45207;DHT22;30950;53.086;21.576;2023-03-01T15:51:26;4.40;99.90
45207;DHT22;30950;53.086;21.576;2023-03-01T15:53:54;4.40;99.90
45207;DHT22;30950;53.086;21.576;2023-03-01T15:56:22;4.30;99.90
45207;DHT22;30950;53.086;21.576;2023-03-01T15:58:49;4.30;99.90
45207;DHT22;30950;53.086;21.576;2023-03-01T16:01:17;4.20;99.90
45207;DHT22;30950;53.086;21.576;2023-03-01T16:03:45;4.20;99.90
45207;DHT22;30950;53.086;21.576;2023-03-01T16:06:12;4.10;99.90
45207;DHT22;30950;53.086;21.576;2023-03-01T16:08:40;4.00;99.90
45207;DHT22;30950;53.086;21.576;2023-03-01T16:11:17;4.00;99.90
45207;DHT22;30950;53.086;21.576;2023-03-01T16:13:44;3.90;99.90
45207;DHT22;30950;53.086;21.576;2023-03-01T16:16:14;3.90;99.90
45207;DHT22;30950;53.086;21.576;2023-03-01T16:18:45;3.80;99.90
45207;DHT22;30950;53.086;21.576;2023-03-01T16:21:24;3.80;99.90
45207;DHT22;30950;53.086;21.576;2023-03-01T16:23:52;3.60;99.90
45207;DHT22;30950;53.086;21.576;2023-03-01T16:26:20;3.50;99.90
45207;DHT22;30950;53.086;21.576;2023-03-01T16:28:47;3.40;99.90
45207;DHT22;30950;53.086;21.576;2023-03-01T16:31:18;3.30;99.90
45207;DHT22;30950;53.086;21.576;2023-03-01T16:33:46;3.20;99.90
45207;DHT22;30950;53.086;21.576;2023-03-01T16:36:19;3.10;99.90
45207;DHT22;30950;53.086;21.576;2023-03-01T16:38:47;3.10;99.90
45207;DHT22;30950;53.086;21.576;2023-03-01T16:41:19;2.90;99.90
45207;DHT22;30950;53.086;21.576;2023-03-01T16:43:47;2.90;99.90
45207;DHT22;30950;53.086;21.576;2023-03-01T16:46:18;2.80;99.90
45207;DHT22;30950;53.086;21.576;2023-03-01T16:48:46;2.70;99.90
45207;DHT22;30950;53.086;21.576;2023-03-01T16:51:14;2.60;99.90
45207;DHT22;30950;53.086;21.576;2023-03-01T16:53:41;2.50;99.90
45207;DHT22;30950;53.086;21.576;2023-03-01T16:56:10;2.50;99.90
45207;DHT22;30950;53.086;21.576;2023-03-01T16:58:39;2.40;99.90
45207;DHT22;30950;53.086;21.576;2023-03-01T17:01:15;2.40;99.90
45207;DHT22;30950;53.086;21.576;2023-03-01T17:03:44;2.30;99.90
45207;DHT22;30950;53.086;21.576;2023-03-01T17:06:14;2.20;99.90
45207;DHT22;30950;53.086;21.576;2023-03-01T17:08:42;2.20;99.90
45207;DHT22;30950;53.086;21.576;2023-03-01T17:11:13;2.10;99.90
45207;DHT22;30950;53.086;21.576;2023-03-01T17:13:41;2.10;99.90
45207;DHT22;30950;53.086;21.576;2023-03-01T17:16:11;2.00;99.90
45207;DHT22;30950;53.086;21.576;2023-03-01T17:18:38;2.00;99.90
45207;DHT22;30950;53.086;21.576;2023-03-01T17:21:07;2.00;99.90
45207;DHT22;30950;53.086;21.576;2023-03-01T17:23:36;1.90;99.90
45207;DHT22;30950;53.086;21.576;2023-03-01T17:26:10;1.80;99.90
45207;DHT22;30950;53.086;21.576;2023-03-01T17:28:39;1.70;99.90
45207;DHT22;30950;53.086;21.576;2023-03-01T17:31:07;1.70;99.90
45207;DHT22;30950;53.086;21.576;2023-03-01T17:33:35;1.60;99.90
45207;DHT22;30950;53.086;21.576;2023-03-01T17:36:03;1.60;99.90
45207;DHT22;30950;53.086;21.576;2023-03-01T17:38:30;1.50;99.90
45207;DHT22;30950;53.086;21.576;2023-03-01T17:40:59;1.50;99.90
45207;DHT22;30950;53.086;21.576;2023-03-01T17:43:27;1.40;99.90
45207;DHT22;30950;53.086;21.576;2023-03-01T17:45:56;1.40;99.90
45207;DHT22;30950;53.086;21.576;2023-03-01T17:48:23;1.30;99.90
45207;DHT22;30950;53.086;21.576;2023-03-01T17:50:52;1.30;99.90